createdAt,value
2022-11-29T00:01:35.458Z,13.40
2022-11-29T00:04:03.458Z,14.40
2022-11-29T00:06:33.590Z,15.00
2022-11-29T00:09:06.451Z,13.50
2022-11-29T00:11:56.063Z,15.30
2022-11-29T00:14:24.511Z,14.20
2022-11-29T00:16:57.222Z,12.50
2022-11-29T00:19:23.865Z,13.20
2022-11-29T00:21:50.876Z,14.50
2022-11-29T00:24:17.886Z,13.20
2022-11-29T00:26:44.666Z,11.80
2022-11-29T00:29:12.954Z,12.80
2022-11-29T00:31:40.546Z,14.30
2022-11-29T00:34:08.052Z,14.80
2022-11-29T00:36:35.721Z,11.30
2022-11-29T00:39:05.047Z,11.70
2022-11-29T00:41:32.647Z,12.60
2022-11-29T00:43:59.383Z,12.50
2022-11-29T00:46:26.093Z,12.30
2022-11-29T00:48:52.719Z,12.80
2022-11-29T00:51:19.381Z,13.60
2022-11-29T00:53:45.998Z,11.60
2022-11-29T00:56:12.837Z,10.40
2022-11-29T00:58:39.587Z,9.90
2022-11-29T01:01:06.368Z,10.50
2022-11-29T01:03:33.110Z,10.30
2022-11-29T01:06:06.951Z,10.60
2022-11-29T01:08:34.003Z,10.10
2022-11-29T01:11:35.683Z,9.30
2022-11-29T01:14:04.051Z,9.60
2022-11-29T01:16:31.642Z,10.80
2022-11-29T01:18:58.438Z,9.40
2022-11-29T01:21:25.131Z,9.10
2022-11-29T01:23:53.709Z,9.50
2022-11-29T01:26:28.729Z,10.40
2022-11-29T01:28:57.370Z,9.30
2022-11-29T01:31:32.968Z,9.70
2022-11-29T01:34:02.638Z,9.30
2022-11-29T01:36:30.542Z,9.60
2022-11-29T01:39:00.634Z,10.30
2022-11-29T01:41:31.130Z,9.30
2022-11-29T01:44:20.732Z,9.40
2022-11-29T01:46:48.306Z,10.30
2022-11-29T01:49:27.341Z,9.80
2022-11-29T01:52:21.568Z,10.30
2022-11-29T01:54:54.335Z,9.10
2022-11-29T01:57:22.023Z,10.60
2022-11-29T01:59:55.044Z,11.60
2022-11-29T02:02:37.174Z,10.80
2022-11-29T02:05:05.360Z,10.60
2022-11-29T02:07:32.178Z,9.20
2022-11-29T02:09:58.987Z,11.20
2022-11-29T02:12:53.405Z,9.90
2022-11-29T02:15:46.773Z,9.10
2022-11-29T02:19:12.350Z,9.30
2022-11-29T02:22:13.636Z,10.90
2022-11-29T02:25:24.547Z,9.70
2022-11-29T02:28:26.096Z,10.00
2022-11-29T02:31:30.030Z,10.60
2022-11-29T02:34:16.585Z,10.70
2022-11-29T02:37:28.517Z,11.80
2022-11-29T02:40:23.002Z,10.30
2022-11-29T02:43:22.675Z,9.70
2022-11-29T02:46:13.808Z,9.30
2022-11-29T02:48:58.274Z,8.50
2022-11-29T02:52:10.464Z,9.20
2022-11-29T02:54:55.441Z,9.50
2022-11-29T02:57:30.682Z,8.70
2022-11-29T03:00:34.891Z,9.30
2022-11-29T03:03:21.780Z,10.00
2022-11-29T03:06:09.002Z,11.40
2022-11-29T03:08:49.921Z,8.10
2022-11-29T03:11:19.852Z,8.70
2022-11-29T03:14:17.258Z,10.20
2022-11-29T03:17:03.153Z,9.30
2022-11-29T03:20:07.392Z,9.40
2022-11-29T03:23:26.164Z,10.10
2022-11-29T03:26:05.341Z,9.80
2022-11-29T03:28:55.386Z,9.90
2022-11-29T03:31:37.817Z,9.40
2022-11-29T03:34:47.721Z,9.80
2022-11-29T03:37:26.177Z,9.50
2022-11-29T03:40:13.644Z,9.30
2022-11-29T03:43:04.445Z,10.00
2022-11-29T03:45:39.101Z,10.00
2022-11-29T03:48:21.129Z,10.60
2022-11-29T03:50:57.118Z,10.50
2022-11-29T03:53:48.413Z,9.70
2022-11-29T03:56:38.097Z,9.70
2022-11-29T03:59:25.612Z,9.30
2022-11-29T04:02:09.933Z,9.00
2022-11-29T04:05:12.929Z,10.30
2022-11-29T04:07:54.703Z,9.70
2022-11-29T04:11:04.710Z,9.20
2022-11-29T04:13:47.072Z,10.60
2022-11-29T04:16:41.934Z,9.60
2022-11-29T04:20:01.076Z,9.30
2022-11-29T04:22:39.803Z,7.90
2022-11-29T04:25:46.882Z,8.50
2022-11-29T04:28:54.664Z,8.70
2022-11-29T04:31:41.093Z,8.90
2022-11-29T04:34:36.021Z,8.50
2022-11-29T04:37:40.258Z,8.60
2022-11-29T04:40:57.073Z,6.70
2022-11-29T04:44:36.761Z,7.40
2022-11-29T04:47:29.804Z,6.30
2022-11-29T04:50:30.433Z,7.00
2022-11-29T04:53:21.356Z,7.50
2022-11-29T04:56:18.670Z,7.30
2022-11-29T04:59:12.895Z,6.80
2022-11-29T05:02:17.660Z,6.90
2022-11-29T05:05:24.793Z,8.10
2022-11-29T05:08:19.707Z,8.10
2022-11-29T05:10:56.319Z,7.60
2022-11-29T05:13:59.122Z,7.70
2022-11-29T05:16:49.240Z,7.80
2022-11-29T05:19:53.700Z,7.00
2022-11-29T05:22:31.225Z,7.30
2022-11-29T05:25:31.560Z,6.80
2022-11-29T05:28:37.888Z,6.70
2022-11-29T05:31:50.282Z,6.80
2022-11-29T05:34:44.833Z,7.10
2022-11-29T05:37:32.807Z,7.10
2022-11-29T05:41:04.010Z,6.90
2022-11-29T05:44:09.382Z,7.20
2022-11-29T05:47:10.267Z,7.20
2022-11-29T05:50:24.947Z,6.90
2022-11-29T05:53:12.005Z,7.80
2022-11-29T05:56:01.826Z,6.40
2022-11-29T05:58:41.103Z,7.60
2022-11-29T06:01:22.081Z,7.30
2022-11-29T06:04:19.326Z,6.30
2022-11-29T06:07:05.796Z,6.40
2022-11-29T06:09:40.909Z,6.80
2022-11-29T06:12:20.986Z,6.70
2022-11-29T06:15:17.261Z,7.50
2022-11-29T06:18:03.194Z,6.10
2022-11-29T06:20:43.012Z,6.30
2022-11-29T06:23:23.255Z,6.60
2022-11-29T06:26:44.999Z,6.30
2022-11-29T06:29:33.432Z,7.30
2022-11-29T06:32:19.466Z,6.60
2022-11-29T06:35:01.325Z,6.70
2022-11-29T06:37:38.726Z,6.80
2022-11-29T06:40:10.559Z,6.90
2022-11-29T06:42:37.193Z,8.20
2022-11-29T06:45:05.039Z,6.30
2022-11-29T06:47:53.163Z,8.30
2022-11-29T06:51:03.949Z,6.30
2022-11-29T06:53:57.977Z,8.00
2022-11-29T06:56:56.042Z,6.10
2022-11-29T06:59:37.898Z,6.00
2022-11-29T07:02:38.962Z,7.20
2022-11-29T07:05:30.310Z,7.40
2022-11-29T07:08:03.762Z,6.70
2022-11-29T07:10:34.143Z,7.90
2022-11-29T07:13:01.237Z,7.20
2022-11-29T07:15:28.681Z,6.80
2022-11-29T07:18:01.361Z,8.30
2022-11-29T07:20:39.741Z,8.80
2022-11-29T07:23:12.461Z,6.30
2022-11-29T07:26:17.307Z,6.60
2022-11-29T07:29:08.754Z,7.00
2022-11-29T07:32:26.366Z,6.30
2022-11-29T07:35:25.119Z,6.10
2022-11-29T07:38:06.999Z,6.30
2022-11-29T07:40:39.558Z,6.70
2022-11-29T07:43:27.584Z,6.00
2022-11-29T07:45:56.306Z,7.40
2022-11-29T07:48:23.205Z,6.40
2022-11-29T07:50:49.905Z,9.70
2022-11-29T07:53:20.140Z,5.80
2022-11-29T07:55:48.438Z,5.70
2022-11-29T07:58:17.654Z,6.40
2022-11-29T08:00:45.279Z,7.30
2022-11-29T08:03:12.825Z,5.70
2022-11-29T08:05:40.811Z,5.70
2022-11-29T08:08:07.876Z,5.80
2022-11-29T08:10:35.490Z,7.30
2022-11-29T08:13:02.258Z,7.20
2022-11-29T08:15:29.073Z,5.80
2022-11-29T08:17:56.113Z,5.40
2022-11-29T08:20:23.104Z,5.00
2022-11-29T08:23:00.320Z,6.10
2022-11-29T08:25:28.255Z,5.80
2022-11-29T08:27:56.338Z,7.10
2022-11-29T08:30:23.427Z,6.90
2022-11-29T08:32:51.987Z,41.20
2022-11-29T08:35:21.820Z,7.40
2022-11-29T08:37:48.605Z,7.70
2022-11-29T08:40:16.445Z,6.40
2022-11-29T08:42:43.305Z,7.00
2022-11-29T08:45:12.051Z,6.20
2022-11-29T08:47:41.039Z,10.50
2022-11-29T08:50:15.542Z,12.50
2022-11-29T08:53:05.445Z,6.90
2022-11-29T08:55:43.049Z,7.50
2022-11-29T08:58:13.808Z,7.20
2022-11-29T09:00:43.846Z,9.30
2022-11-29T09:03:29.217Z,8.10
2022-11-29T09:05:57.638Z,8.40
2022-11-29T09:08:24.313Z,6.10
2022-11-29T09:10:50.963Z,6.20
2022-11-29T09:13:18.222Z,7.50
2022-11-29T09:15:45.114Z,6.00
2022-11-29T09:18:11.801Z,6.60
2022-11-29T09:20:38.504Z,8.00
2022-11-29T09:23:05.160Z,6.10
2022-11-29T09:25:31.950Z,6.00
2022-11-29T09:28:01.854Z,54.40
2022-11-29T09:30:31.494Z,11.60
2022-11-29T09:33:05.065Z,10.20
2022-11-29T09:35:33.533Z,7.80
2022-11-29T09:38:00.256Z,19.00
2022-11-29T09:40:37.753Z,9.30
2022-11-29T09:43:41.020Z,7.30
2022-11-29T09:46:58.998Z,7.90
2022-11-29T09:49:43.765Z,7.10
2022-11-29T09:52:33.588Z,7.00
2022-11-29T09:55:25.144Z,6.30
2022-11-29T09:57:54.997Z,5.90
2022-11-29T10:00:21.602Z,5.40
2022-11-29T10:02:56.926Z,7.70
2022-11-29T10:05:44.193Z,6.00
2022-11-29T10:08:23.319Z,5.70
2022-11-29T10:10:55.732Z,6.30
2022-11-29T10:13:34.368Z,6.50
2022-11-29T10:16:23.072Z,6.20
2022-11-29T10:19:24.575Z,16.50
2022-11-29T10:22:02.919Z,8.60
2022-11-29T10:24:32.039Z,7.90
2022-11-29T10:26:58.743Z,6.30
2022-11-29T10:29:25.901Z,7.50
2022-11-29T10:31:56.816Z,6.10
2022-11-29T10:34:26.779Z,66.90
2022-11-29T10:36:59.824Z,9.10
2022-11-29T10:39:57.479Z,8.30
2022-11-29T10:42:47.050Z,6.30
2022-11-29T10:45:30.849Z,5.80
2022-11-29T10:48:16.970Z,7.90
2022-11-29T10:50:48.714Z,8.90
2022-11-29T10:53:25.382Z,6.00
2022-11-29T10:56:06.506Z,5.90
2022-11-29T10:58:33.172Z,9.90
2022-11-29T11:01:07.179Z,11.50
2022-11-29T11:03:35.651Z,6.00
2022-11-29T11:06:18.702Z,6.00
2022-11-29T11:08:54.028Z,5.00
2022-11-29T11:11:31.741Z,7.20
2022-11-29T11:14:03.426Z,5.70
2022-11-29T11:16:34.295Z,40.70
2022-11-29T11:19:31.369Z,8.40
2022-11-29T11:22:01.395Z,6.70
2022-11-29T11:24:36.233Z,6.20
2022-11-29T11:27:03.644Z,5.80
2022-11-29T11:29:41.618Z,5.70
2022-11-29T11:32:19.557Z,6.30
2022-11-29T11:34:57.212Z,6.00
2022-11-29T11:37:29.276Z,6.20
2022-11-29T11:40:20.573Z,4.70
2022-11-29T11:42:47.252Z,5.40
2022-11-29T11:45:13.841Z,6.60
2022-11-29T11:47:46.709Z,7.80
2022-11-29T11:50:34.334Z,7.40
2022-11-29T11:53:06.692Z,6.40
2022-11-29T11:55:35.000Z,6.10
2022-11-29T11:58:13.469Z,7.80
2022-11-29T12:01:05.845Z,8.00
2022-11-29T12:03:53.046Z,29.60
2022-11-29T12:06:41.595Z,6.00
2022-11-29T12:09:08.464Z,4.20
2022-11-29T12:12:03.864Z,5.60
2022-11-29T12:14:45.593Z,5.20
2022-11-29T12:17:38.662Z,4.30
2022-11-29T12:20:31.156Z,6.90
2022-11-29T12:23:13.155Z,5.40
2022-11-29T12:25:53.830Z,4.90
2022-11-29T12:28:22.714Z,51.80
2022-11-29T12:31:20.103Z,6.20
2022-11-29T12:34:10.879Z,7.80
2022-11-29T12:37:04.825Z,7.10
2022-11-29T12:40:01.802Z,5.30
2022-11-29T12:42:40.739Z,4.00
2022-11-29T12:45:40.576Z,9.60
2022-11-29T12:48:27.078Z,5.70
2022-11-29T12:51:23.680Z,5.90
2022-11-29T12:54:20.045Z,4.40
2022-11-29T12:57:28.603Z,4.90
2022-11-29T13:00:01.189Z,6.00
2022-11-29T13:03:02.677Z,4.30
2022-11-29T13:06:08.063Z,4.10
2022-11-29T13:09:24.262Z,4.80
2022-11-29T13:12:05.111Z,4.20
2022-11-29T13:14:45.491Z,4.30
2022-11-29T13:17:47.019Z,4.20
2022-11-29T13:20:25.820Z,4.40
2022-11-29T13:23:16.284Z,4.40
2022-11-29T13:25:47.667Z,4.20
2022-11-29T13:28:26.612Z,4.40
2022-11-29T13:31:03.442Z,7.10
2022-11-29T13:33:52.202Z,5.40
2022-11-29T13:36:24.951Z,6.10
2022-11-29T13:39:14.439Z,5.30
2022-11-29T13:41:54.725Z,3.30
2022-11-29T13:44:39.486Z,5.30
2022-11-29T13:47:12.776Z,5.00
2022-11-29T13:50:02.564Z,7.00
2022-11-29T13:52:43.378Z,6.10
2022-11-29T13:55:12.675Z,6.20
2022-11-29T13:58:16.871Z,7.40
2022-11-29T14:00:44.591Z,6.00
2022-11-29T14:03:20.970Z,6.40
2022-11-29T14:05:51.950Z,6.80
2022-11-29T14:11:42.470Z,6.40
2022-11-29T14:14:20.311Z,8.20
2022-11-29T14:16:52.465Z,7.60
2022-11-29T14:19:21.100Z,7.20
2022-11-29T14:22:03.132Z,7.90
2022-11-29T14:24:32.798Z,8.40
2022-11-29T14:27:14.428Z,7.90
2022-11-29T14:29:50.239Z,8.60
2022-11-29T14:32:42.807Z,5.90
2022-11-29T14:35:12.538Z,8.50
2022-11-29T14:38:19.391Z,8.20
2022-11-29T14:40:59.953Z,9.00
2022-11-29T14:43:33.513Z,7.00
2022-11-29T14:46:31.078Z,9.00
2022-11-29T14:49:03.798Z,8.40
2022-11-29T14:51:34.050Z,9.40
2022-11-29T14:54:13.204Z,9.90
2022-11-29T14:56:44.482Z,8.00
2022-11-29T14:59:47.149Z,9.00
2022-11-29T15:02:19.914Z,8.00
2022-11-29T15:04:50.997Z,10.90
2022-11-29T15:07:29.349Z,7.70
2022-11-29T15:10:04.431Z,12.80
2022-11-29T15:12:36.226Z,11.10
2022-11-29T15:15:21.774Z,11.80
2022-11-29T15:17:48.363Z,11.90
2022-11-29T15:20:28.036Z,11.30
2022-11-29T15:22:59.579Z,12.00
2022-11-29T15:25:31.233Z,11.40
2022-11-29T15:28:05.764Z,9.80
2022-11-29T15:30:42.325Z,10.10
2022-11-29T15:33:22.393Z,14.00
2022-11-29T15:35:53.266Z,12.40
2022-11-29T15:38:22.590Z,10.10
2022-11-29T15:40:55.271Z,12.10
2022-11-29T15:43:30.622Z,9.50
2022-11-29T15:45:58.957Z,12.70
2022-11-29T15:48:31.499Z,15.80
2022-11-29T15:51:23.258Z,13.60
2022-11-29T15:54:10.158Z,11.30
2022-11-29T15:56:48.945Z,13.30
2022-11-29T15:59:38.370Z,13.70
2022-11-29T16:02:32.515Z,14.40
2022-11-29T16:05:35.702Z,14.50
2022-11-29T16:08:17.809Z,16.10
2022-11-29T16:10:49.433Z,13.60
2022-11-29T16:13:25.425Z,11.90
2022-11-29T16:16:06.256Z,14.50
2022-11-29T16:18:33.857Z,18.10
2022-11-29T16:21:04.272Z,17.20
2022-11-29T16:23:41.209Z,17.00
2022-11-29T16:26:15.583Z,14.50
2022-11-29T16:28:46.554Z,12.50
2022-11-29T16:31:18.946Z,14.60
2022-11-29T16:33:47.582Z,15.20
2022-11-29T16:36:24.415Z,14.10
2022-11-29T16:39:06.392Z,15.40
2022-11-29T16:41:37.260Z,13.70
2022-11-29T16:44:07.316Z,13.80
2022-11-29T16:46:40.021Z,19.50
2022-11-29T16:49:34.837Z,15.10
2022-11-29T16:52:04.302Z,14.10
2022-11-29T16:54:35.465Z,16.10
2022-11-29T16:57:05.659Z,18.90
2022-11-29T16:59:32.809Z,18.10
2022-11-29T17:01:59.553Z,17.60
2022-11-29T17:04:26.596Z,21.30
2022-11-29T17:06:55.389Z,22.10
2022-11-29T17:09:31.288Z,23.50
2022-11-29T17:12:01.877Z,23.90
2022-11-29T17:14:29.607Z,24.00
2022-11-29T17:16:56.441Z,20.50
2022-11-29T17:19:24.144Z,25.30
2022-11-29T17:21:52.855Z,19.30
2022-11-29T17:24:22.671Z,22.10
2022-11-29T17:26:50.423Z,20.60
2022-11-29T17:29:18.294Z,24.10
2022-11-29T17:31:46.532Z,20.60
2022-11-29T17:34:13.271Z,26.00
2022-11-29T17:36:40.927Z,24.10
2022-11-29T17:39:08.314Z,22.90
2022-11-29T17:41:35.173Z,18.30
2022-11-29T17:44:02.202Z,23.20
2022-11-29T17:46:32.502Z,26.70
2022-11-29T17:49:02.083Z,25.40
2022-11-29T17:51:51.187Z,22.50
2022-11-29T17:54:16.305Z,19.00
2022-11-29T17:56:43.059Z,25.10
2022-11-29T17:59:09.682Z,25.30
2022-11-29T18:01:36.831Z,22.30
2022-11-29T18:04:05.819Z,25.20
2022-11-29T18:06:40.748Z,24.90
2022-11-29T18:09:10.660Z,15.90
2022-11-29T18:11:47.664Z,23.60
2022-11-29T18:14:23.844Z,22.10
2022-11-29T18:16:51.659Z,22.80
2022-11-29T18:19:21.605Z,13.80
2022-11-29T18:21:49.661Z,27.60
2022-11-29T18:24:16.724Z,23.90
2022-11-29T18:26:43.843Z,22.80
2022-11-29T18:29:10.792Z,31.90
2022-11-29T18:31:41.104Z,29.30
2022-11-29T18:34:10.899Z,23.40
2022-11-29T18:36:48.856Z,25.80
2022-11-29T18:39:19.032Z,34.30
2022-11-29T18:41:48.944Z,30.00
2022-11-29T18:44:18.889Z,29.70
2022-11-29T18:46:46.143Z,24.40
2022-11-29T18:49:16.044Z,26.90
2022-11-29T18:51:44.972Z,24.90
2022-11-29T18:54:12.914Z,21.40
2022-11-29T18:56:39.800Z,28.10
2022-11-29T18:59:16.763Z,27.00
2022-11-29T19:01:45.868Z,26.20
2022-11-29T19:04:16.814Z,27.20
2022-11-29T19:06:44.127Z,22.60
2022-11-29T19:09:23.782Z,20.20
2022-11-29T19:11:51.076Z,24.50
2022-11-29T19:14:18.677Z,23.10
2022-11-29T19:16:47.655Z,24.90
2022-11-29T19:19:14.337Z,28.80
2022-11-29T19:21:42.139Z,26.70
2022-11-29T19:24:14.900Z,26.60
2022-11-29T19:26:44.939Z,25.80
2022-11-29T19:29:13.690Z,26.00
2022-11-29T19:31:40.898Z,24.00
2022-11-29T19:34:07.673Z,28.10
2022-11-29T19:36:34.526Z,27.20
2022-11-29T19:39:02.811Z,20.60
2022-11-29T19:41:32.716Z,19.80
2022-11-29T19:44:04.395Z,26.60
2022-11-29T19:46:35.396Z,21.50
2022-11-29T19:49:05.030Z,25.90
2022-11-29T19:51:32.727Z,20.50
2022-11-29T19:54:02.739Z,18.30
2022-11-29T19:56:30.929Z,24.20
2022-11-29T19:58:59.918Z,26.90
2022-11-29T20:01:37.802Z,29.80
2022-11-29T20:04:07.394Z,31.30
2022-11-29T20:06:34.160Z,21.50
2022-11-29T20:09:00.842Z,22.70
2022-11-29T20:11:27.593Z,27.00
2022-11-29T20:13:59.647Z,27.50
2022-11-29T20:16:27.969Z,26.30
2022-11-29T20:18:55.694Z,29.20
2022-11-29T20:21:27.025Z,27.50
2022-11-29T20:24:05.793Z,27.20
2022-11-29T20:26:35.466Z,23.80
2022-11-29T20:29:02.772Z,29.10
2022-11-29T20:31:32.265Z,28.70
2022-11-29T20:33:59.235Z,27.10
2022-11-29T20:37:00.854Z,28.30
2022-11-29T20:39:45.648Z,23.10
2022-11-29T20:42:56.683Z,22.30
2022-11-29T20:45:24.795Z,22.30
2022-11-29T20:48:19.563Z,24.10
2022-11-29T20:50:56.889Z,20.90
2022-11-29T20:53:44.557Z,23.20
2022-11-29T20:56:12.174Z,23.40
2022-11-29T20:58:39.168Z,24.90
2022-11-29T21:01:07.339Z,24.00
2022-11-29T21:03:34.036Z,20.10
2022-11-29T21:06:04.101Z,19.90
2022-11-29T21:08:31.697Z,21.40
2022-11-29T21:11:08.114Z,23.20
2022-11-29T21:13:35.457Z,21.20
2022-11-29T21:16:03.391Z,26.00
2022-11-29T21:18:31.906Z,23.10
2022-11-29T21:22:02.238Z,24.80
2022-11-29T21:24:49.897Z,23.80
2022-11-29T21:27:29.189Z,21.80
2022-11-29T21:29:56.268Z,24.00
2022-11-29T21:34:52.862Z,23.70
2022-11-29T21:37:23.018Z,17.70
2022-11-29T21:39:51.532Z,17.20
2022-11-29T21:42:18.643Z,20.80
2022-11-29T21:44:45.598Z,15.10
2022-11-29T21:47:12.753Z,20.20
2022-11-29T21:49:40.033Z,22.90
2022-11-29T21:52:06.996Z,20.50
2022-11-29T21:54:33.762Z,22.30
2022-11-29T21:57:01.813Z,20.40
2022-11-29T21:59:29.087Z,22.60
2022-11-29T22:01:55.831Z,16.40
2022-11-29T22:04:22.852Z,22.20
2022-11-29T22:06:49.558Z,18.50
2022-11-29T22:09:16.491Z,24.40
2022-11-29T22:11:43.251Z,24.70
2022-11-29T22:14:18.893Z,28.90
2022-11-29T22:16:53.550Z,17.10
2022-11-29T22:19:30.015Z,19.00
2022-11-29T22:22:02.936Z,21.40
2022-11-29T22:24:33.527Z,21.10
2022-11-29T22:27:00.421Z,23.90
2022-11-29T22:29:27.356Z,21.10
2022-11-29T22:31:56.259Z,26.00
2022-11-29T22:34:26.867Z,26.20
2022-11-29T22:36:53.899Z,29.10
2022-11-29T22:39:22.729Z,29.90
2022-11-29T22:41:53.935Z,28.60
2022-11-29T22:44:23.039Z,30.60
2022-11-29T22:46:50.070Z,23.10
2022-11-29T22:49:16.733Z,23.80
2022-11-29T22:51:43.992Z,30.40
2022-11-29T22:54:11.765Z,28.90
2022-11-29T22:56:41.386Z,32.40
2022-11-29T22:59:08.393Z,29.60
2022-11-29T23:01:38.780Z,31.70
2022-11-29T23:04:10.977Z,33.70
2022-11-29T23:06:43.959Z,33.90
2022-11-29T23:09:18.979Z,32.30
2022-11-29T23:11:46.450Z,33.80
2022-11-29T23:14:13.571Z,30.00
2022-11-29T23:16:40.973Z,32.30
2022-11-29T23:19:07.691Z,32.00
2022-11-29T23:21:38.313Z,32.00
2022-11-29T23:24:05.726Z,30.50
2022-11-29T23:26:40.112Z,29.20
2022-11-29T23:29:11.108Z,26.90
2022-11-29T23:31:38.719Z,20.90
2022-11-29T23:34:05.795Z,26.40
2022-11-29T23:36:33.062Z,32.70
2022-11-29T23:39:00.429Z,33.00
2022-11-29T23:41:27.104Z,33.20
2022-11-29T23:43:53.830Z,27.90
2022-11-29T23:46:24.125Z,27.40
2022-11-29T23:48:52.281Z,24.30
2022-11-29T23:51:20.019Z,24.30
2022-11-29T23:53:52.419Z,23.30
2022-11-29T23:56:20.228Z,28.10
2022-11-29T23:58:47.161Z,15.50
